Airfield :
LOGIN :

Register | Disclaimer

   EN    FR    IT 

 










Legend :    VFR   Marginal VFR   IFR   Intensive IFR   Very Intensive IFR
Visi :
Ceiling :
>= 8 km
>= 3000ft
5 to 8 km
1000 to 3000 ft
1500m to 5 km
500 to 1000 ft
800 to 1500m
200 to 500 ft
< 800m
< 200 ft
Symbols :   Thunderstorms  Fog  Heavy snow  Heavy precipitations  Wind > 20 kt
SIGMETs :     Misc.  Thunderstorms  Icing  Turbulence  Mountain Waves  Volcanic Ashes







- Airport Elevation : 55 ft
- IATA code : DSA
- Download approach charts


EGCN - Robin Hood Doncaster Sheffield

CURRENT METAR :
  • 251920Z 35010KT 5000 -DZ BKN003 BKN007 OVC011 14/14 Q1025

EXPIRED METARs :
  • 251850Z 36010KT 4300 -DZ BKN003 OVC007 14/14 Q1024
  • 251820Z 36008KT 3500 DZ BKN003 OVC006 14/14 Q1024
  • 251750Z 35009KT 3000 DZ BKN003 OVC007 14/14 Q1024
  • 251720Z 35008KT 2800 -DZ BKN003 BKN006 OVC009 14/14 Q1024
  • 251650Z 35007KT 3200 -DZ BKN003 OVC006 14/14 Q1024

TAF AMD TAF EGCN
Valid from the 25 at 18:00 until the 26 at 18:00 UTC


251809Z 2518/2618 35008KT 9999 SCT003 BKN006
TEMPO 2518/2608 3000 -DZ BR BKN003
PROB40
TEMPO 2518/2521 DZ
BECMG 2608/2610 BKN012
BECMG 2610/2613 SCT030
No reported NOTAMs for that airfield.



MET'MAP, your aeronautical weather chart ! - Copyright ORBIFLY December 2007 - Disclaimer

ORBIFLY MET'MAP TEAM :

Programming & Development : Alexandra Zaïnal
Concept & Development : Baudouin d'Aumeries
Co-Development & Prog : Marc-Olivier Méhu
Technical & hardware support : Manuel Goepfert

Contact : metmap@orbifly.com




SOURCES & CREDITS :

   NOAA